Time;durP1;ratioP1;P1;durP2;ratioP2;P2;SDS_P1;SDS_P2;PMS_P1;PMS_P2;Temp;Humidity;BMP_temperature;BMP_pressure;BME280_temperature;BME280_humidity;BME280_pressure;Samples;Min_cycle;Max_cycle;Signal;HPM_P1;HPM_P2
2023/10/28 00:00:17;;;;;;;1.73;0.50;;;14.30;99.90;;;;;;4976113;28;20118;-37
2023/10/28 00:02:45;;;;;;;0.90;0.55;;;14.30;99.90;;;;;;4975590;28;20070;-41
2023/10/28 00:05:11;;;;;;;1.48;0.63;;;14.30;99.90;;;;;;4975607;28;20030;-38
2023/10/28 00:07:37;;;;;;;0.75;0.52;;;14.30;99.90;;;;;;4975531;28;20031;-40
2023/10/28 00:10:03;;;;;;;0.60;0.50;;;14.30;99.90;;;;;;4975708;28;20026;-40
2023/10/28 00:12:28;;;;;;;1.20;0.60;;;14.30;99.90;;;;;;4975150;28;20448;-41
2023/10/28 00:14:54;;;;;;;2.72;0.80;;;14.30;99.90;;;;;;4975629;28;20031;-42
2023/10/28 00:17:20;;;;;;;0.80;0.63;;;14.30;99.90;;;;;;4975344;28;20393;-40
2023/10/28 00:19:46;;;;;;;0.75;0.50;;;14.30;99.90;;;;;;4975473;28;20038;-38
2023/10/28 00:22:12;;;;;;;0.63;0.43;;;14.30;99.90;;;;;;4975260;28;20031;-40
2023/10/28 00:24:41;;;;;;;0.73;0.50;;;14.30;99.90;;;;;;4975080;28;20045;-40
2023/10/28 00:27:08;;;;;;;0.60;0.40;;;14.30;99.90;;;;;;4974004;28;20037;-39
2023/10/28 00:29:33;;;;;;;1.00;0.60;;;14.30;99.90;;;;;;4975374;28;20543;-40
2023/10/28 00:31:59;;;;;;;0.30;0.30;;;14.30;99.90;;;;;;4974735;28;20026;-40
2023/10/28 00:34:24;;;;;;;0.80;0.40;;;14.30;99.90;;;;;;4975155;28;20030;-40
2023/10/28 00:36:50;;;;;;;1.23;0.65;;;14.30;99.90;;;;;;4974835;28;20038;-40
2023/10/28 00:39:16;;;;;;;0.90;0.52;;;14.30;99.90;;;;;;4974794;28;20149;-40
2023/10/28 00:41:43;;;;;;;1.15;0.57;;;14.30;99.90;;;;;;4975138;28;20061;-41
2023/10/28 00:44:09;;;;;;;0.80;0.50;;;14.20;99.90;;;;;;4975254;28;20023;-43
2023/10/28 00:46:35;;;;;;;1.38;0.50;;;14.20;99.90;;;;;;4974540;28;20113;-39
2023/10/28 00:49:01;;;;;;;0.70;0.50;;;14.30;99.90;;;;;;4975012;28;20035;-41
2023/10/28 00:51:27;;;;;;;0.57;0.45;;;14.20;99.90;;;;;;4974902;28;20026;-38
2023/10/28 00:53:53;;;;;;;1.05;0.50;;;14.20;99.90;;;;;;4974792;28;20115;-40
2023/10/28 00:56:19;;;;;;;1.23;0.40;;;14.20;99.90;;;;;;4974383;28;20070;-37
2023/10/28 00:58:46;;;;;;;0.65;0.30;;;14.30;99.90;;;;;;4974816;28;20023;-39
2023/10/28 01:01:13;;;;;;;1.45;0.50;;;14.20;99.90;;;;;;4975109;28;20476;-40
2023/10/28 01:03:42;;;;;;;0.50;0.30;;;14.20;99.90;;;;;;4974627;28;20510;-40
2023/10/28 01:06:12;;;;;;;0.70;0.40;;;14.20;99.90;;;;;;4974579;28;20019;-41
2023/10/28 01:08:38;;;;;;;1.13;0.43;;;14.20;99.90;;;;;;4974702;28;20042;-39
2023/10/28 01:11:04;;;;;;;0.93;0.60;;;14.30;99.90;;;;;;4974718;28;20027;-42
2023/10/28 01:13:30;;;;;;;1.17;0.47;;;14.20;99.90;;;;;;4974773;28;20101;-42
2023/10/28 01:15:59;;;;;;;0.40;0.30;;;14.20;99.90;;;;;;4974278;28;20038;-41
2023/10/28 01:18:25;;;;;;;0.52;0.40;;;14.20;99.90;;;;;;4974696;28;20119;-39
2023/10/28 01:20:51;;;;;;;0.88;0.47;;;14.20;99.90;;;;;;4974548;28;20429;-40
2023/10/28 01:23:16;;;;;;;1.95;0.43;;;14.20;99.90;;;;;;4974052;28;20384;-39
2023/10/28 01:25:42;;;;;;;0.73;0.40;;;14.20;99.90;;;;;;4974142;28;20162;-42
2023/10/28 01:28:08;;;;;;;0.50;0.30;;;14.20;99.90;;;;;;4974173;28;20019;-40
2023/10/28 01:30:34;;;;;;;0.68;0.50;;;14.20;99.90;;;;;;4974600;28;20117;-38
2023/10/28 01:32:59;;;;;;;1.25;0.50;;;14.20;99.90;;;;;;4974150;28;20462;-39
2023/10/28 01:35:25;;;;;;;0.50;0.30;;;14.20;99.90;;;;;;4974286;28;20457;-40
2023/10/28 01:37:51;;;;;;;1.20;0.57;;;14.20;99.90;;;;;;4973953;28;20118;-40
2023/10/28 01:40:17;;;;;;;0.70;0.30;;;14.20;99.90;;;;;;4978061;28;20515;-42
2023/10/28 01:42:45;;;;;;;0.98;0.30;;;14.20;99.90;;;;;;4978596;28;20480;-40
2023/10/28 01:45:12;;;;;;;0.82;0.47;;;14.20;99.90;;;;;;4978135;28;20141;-44
2023/10/28 01:47:40;;;;;;;0.65;0.40;;;14.20;99.90;;;;;;4977067;28;20046;-37
2023/10/28 01:50:06;;;;;;;1.75;0.32;;;14.20;99.90;;;;;;4976624;28;20050;-38
2023/10/28 01:52:33;;;;;;;1.15;0.47;;;14.20;99.90;;;;;;4976275;28;20041;-38
2023/10/28 01:54:58;;;;;;;0.80;0.40;;;14.20;99.90;;;;;;4976694;28;20031;-37
2023/10/28 01:57:24;;;;;;;1.67;0.50;;;14.20;99.90;;;;;;4976243;28;20022;-37
2023/10/28 01:59:50;;;;;;;0.88;0.40;;;14.20;99.90;;;;;;4976609;28;20403;-38
2023/10/28 02:02:16;;;;;;;1.00;0.50;;;14.20;99.90;;;;;;4976289;28;20030;-37
2023/10/28 02:04:42;;;;;;;1.05;0.50;;;14.20;99.90;;;;;;4976767;28;20025;-38
2023/10/28 02:07:07;;;;;;;0.40;0.30;;;14.20;99.90;;;;;;4975805;28;20235;-37
2023/10/28 02:09:33;;;;;;;0.60;0.40;;;14.20;99.90;;;;;;4976233;28;20396;-38
2023/10/28 02:12:02;;;;;;;1.38;0.35;;;14.20;99.90;;;;;;4976236;28;20045;-38
2023/10/28 02:14:28;;;;;;;0.47;0.20;;;14.20;99.90;;;;;;4976206;28;20026;-37
2023/10/28 02:16:55;;;;;;;0.68;0.50;;;14.20;99.90;;;;;;4975774;28;20042;-37
2023/10/28 02:19:21;;;;;;;0.95;0.30;;;14.20;99.90;;;;;;4976145;28;20173;-38
2023/10/28 02:21:48;;;;;;;1.08;0.55;;;14.20;99.90;;;;;;4975741;28;20031;-37
2023/10/28 02:24:13;;;;;;;0.90;0.40;;;14.20;99.90;;;;;;4976481;28;20031;-38
2023/10/28 02:26:39;;;;;;;0.68;0.40;;;14.20;99.90;;;;;;4975717;28;20030;-38
2023/10/28 02:29:06;;;;;;;0.50;0.40;;;14.20;99.90;;;;;;4975993;28;20023;-38
2023/10/28 02:31:32;;;;;;;1.38;0.45;;;14.20;99.90;;;;;;4975886;28;20091;-38
2023/10/28 02:33:57;;;;;;;1.35;0.43;;;14.20;99.90;;;;;;4975940;28;20048;-38
2023/10/28 02:36:25;;;;;;;1.13;0.50;;;14.20;99.90;;;;;;4975328;28;20042;-37
2023/10/28 02:38:50;;;;;;;2.13;0.60;;;14.20;99.90;;;;;;4975755;28;20023;-37
2023/10/28 02:41:16;;;;;;;0.85;0.40;;;14.20;99.90;;;;;;4975657;28;20391;-38
2023/10/28 02:43:42;;;;;;;1.50;0.40;;;14.20;99.90;;;;;;4975507;28;20026;-38
2023/10/28 02:46:08;;;;;;;1.23;0.47;;;14.20;99.90;;;;;;4975251;28;20030;-38
2023/10/28 02:48:34;;;;;;;1.77;0.52;;;14.10;99.90;;;;;;4975873;28;20038;-38
2023/10/28 02:51:10;;;;;;;0.90;0.47;;;14.10;99.90;;;;;;4974347;28;20031;-37
2023/10/28 02:53:36;;;;;;;0.73;0.40;;;14.10;99.90;;;;;;4975651;28;20023;-37
2023/10/28 02:56:05;;;;;;;1.25;0.40;;;14.10;99.90;;;;;;4975224;28;20034;-37
2023/10/28 02:58:31;;;;;;;3.80;0.50;;;14.20;99.90;;;;;;4975420;28;20101;-38
2023/10/28 03:01:06;;;;;;;0.93;0.40;;;14.10;99.90;;;;;;4975339;28;20114;-37
2023/10/28 03:03:32;;;;;;;;;;;14.10;99.90;;;;;;4975799;28;20308;-37
2023/10/28 03:05:57;;;;;;;1.35;0.40;;;14.20;99.90;;;;;;4974985;28;20385;-37
2023/10/28 03:08:23;;;;;;;1.08;0.40;;;14.20;99.90;;;;;;4975195;28;20258;-38
2023/10/28 03:10:49;;;;;;;1.00;0.35;;;14.20;99.90;;;;;;4975350;28;20106;-37
2023/10/28 03:13:15;;;;;;;1.23;0.35;;;14.10;99.90;;;;;;4975118;28;20102;-38
2023/10/28 03:15:40;;;;;;;0.70;0.50;;;14.10;99.90;;;;;;4974876;28;20158;-37
2023/10/28 03:18:06;;;;;;;2.28;0.60;;;14.20;99.90;;;;;;4974909;28;20519;-37
2023/10/28 03:20:32;;;;;;;0.80;0.30;;;14.10;99.90;;;;;;4974915;28;20396;-38
2023/10/28 03:22:57;;;;;;;2.20;0.50;;;14.10;99.90;;;;;;4974893;28;20388;-38
2023/10/28 03:25:23;;;;;;;1.77;0.50;;;14.10;99.90;;;;;;4974683;28;20031;-37
2023/10/28 03:27:49;;;;;;;1.08;0.40;;;14.10;99.90;;;;;;4974727;28;20025;-37
2023/10/28 03:30:15;;;;;;;1.58;0.60;;;14.10;99.90;;;;;;4974819;28;20023;-37
2023/10/28 03:32:40;;;;;;;0.95;0.52;;;14.10;99.90;;;;;;4974660;28;20035;-38
2023/10/28 03:35:06;;;;;;;2.30;0.60;;;14.10;99.90;;;;;;4974567;28;20532;-38
2023/10/28 03:37:32;;;;;;;0.88;0.55;;;14.10;99.90;;;;;;4974759;28;20074;-37
2023/10/28 03:39:59;;;;;;;1.95;0.55;;;14.10;99.90;;;;;;4974670;28;20416;-38
2023/10/28 03:42:24;;;;;;;1.65;0.55;;;14.10;99.90;;;;;;4974581;28;20034;-37
2023/10/28 03:44:50;;;;;;;2.38;0.63;;;14.10;99.90;;;;;;4974446;28;20026;-38
2023/10/28 03:47:16;;;;;;;1.27;0.50;;;14.10;99.90;;;;;;4973945;28;20027;-38
2023/10/28 03:49:42;;;;;;;1.90;0.57;;;14.20;99.90;;;;;;4974214;28;20477;-38
2023/10/28 03:52:07;;;;;;;2.10;0.70;;;14.10;99.90;;;;;;4974425;28;20022;-38
2023/10/28 03:54:33;;;;;;;2.80;0.70;;;14.10;99.90;;;;;;4974277;28;20030;-38
2023/10/28 03:56:59;;;;;;;1.48;0.63;;;14.10;99.90;;;;;;4974092;28;20085;-37
2023/10/28 03:59:24;;;;;;;1.35;0.50;;;14.10;99.90;;;;;;4974177;28;20097;-37
2023/10/28 04:01:50;;;;;;;1.30;0.43;;;14.10;99.90;;;;;;4973706;28;20039;-37
2023/10/28 04:04:16;;;;;;;1.10;0.60;;;14.10;99.90;;;;;;4973975;28;20027;-38
2023/10/28 04:06:42;;;;;;;1.63;0.52;;;14.10;99.90;;;;;;4973821;28;20392;-37
2023/10/28 04:09:08;;;;;;;1.23;0.40;;;14.10;99.90;;;;;;4973985;28;20106;-37
2023/10/28 04:11:33;;;;;;;2.75;0.45;;;14.10;99.90;;;;;;4974214;28;20026;-38
2023/10/28 04:13:59;;;;;;;1.10;0.47;;;14.10;99.90;;;;;;4973871;28;20038;-38
2023/10/28 04:16:25;;;;;;;3.00;0.75;;;14.10;99.90;;;;;;4973844;28;20030;-38
2023/10/28 04:18:52;;;;;;;1.05;0.57;;;14.10;99.90;;;;;;4973757;28;20480;-38
2023/10/28 04:21:17;;;;;;;2.28;0.57;;;14.10;99.90;;;;;;4973730;28;20029;-38
2023/10/28 04:23:43;;;;;;;1.27;0.50;;;14.10;99.90;;;;;;4973744;28;20026;-37
2023/10/28 04:26:09;;;;;;;2.00;0.60;;;14.10;99.90;;;;;;4973950;28;20147;-37
2023/10/28 04:28:34;;;;;;;2.35;0.70;;;14.10;99.90;;;;;;4973552;28;20098;-37
2023/10/28 04:31:00;;;;;;;1.70;0.57;;;14.10;99.90;;;;;;4973493;28;20039;-37
2023/10/28 04:33:26;;;;;;;0.45;0.20;;;14.10;99.90;;;;;;4973688;28;20034;-38
2023/10/28 04:35:55;;;;;;;1.83;0.63;;;14.10;99.90;;;;;;4973487;28;20424;-37
2023/10/28 04:38:21;;;;;;;2.65;0.60;;;14.10;99.90;;;;;;4973429;28;20110;-38
2023/10/28 04:40:49;;;;;;;3.35;0.73;;;14.10;99.90;;;;;;4973347;28;20026;-37
2023/10/28 04:43:14;;;;;;;1.60;0.40;;;14.10;99.90;;;;;;4971959;28;20041;-38
2023/10/28 04:45:41;;;;;;;1.77;0.50;;;14.10;99.90;;;;;;4973079;28;20113;-37
2023/10/28 04:48:10;;;;;;;1.38;0.57;;;14.10;99.90;;;;;;4971907;28;20026;-37
2023/10/28 04:50:36;;;;;;;2.85;0.70;;;14.10;99.90;;;;;;4973362;28;20046;-38
2023/10/28 04:53:02;;;;;;;1.17;0.40;;;14.00;99.90;;;;;;4973335;28;20069;-37
2023/10/28 04:55:28;;;;;;;1.90;0.60;;;14.10;99.90;;;;;;4972967;28;20533;-38
2023/10/28 04:57:53;;;;;;;3.20;0.75;;;14.00;99.90;;;;;;4973037;28;20038;-38
2023/10/28 05:00:19;;;;;;;1.77;0.70;;;14.00;99.90;;;;;;4971740;28;20041;-37
2023/10/28 05:02:45;;;;;;;1.70;0.50;;;14.00;99.90;;;;;;4973319;28;20033;-37
2023/10/28 05:05:13;;;;;;;0.80;0.40;;;14.00;99.90;;;;;;4973196;28;20366;-37
2023/10/28 05:07:39;;;;;;;2.55;0.50;;;14.10;99.90;;;;;;4972986;28;20031;-38
2023/10/28 05:10:06;;;;;;;1.52;0.47;;;14.00;99.90;;;;;;4973101;28;20018;-37
2023/10/28 05:12:32;;;;;;;2.03;0.60;;;14.00;99.90;;;;;;4972767;28;20081;-38
2023/10/28 05:14:59;;;;;;;3.45;0.68;;;14.00;99.90;;;;;;4972435;28;20057;-37
2023/10/28 05:17:27;;;;;;;1.38;0.50;;;14.00;99.90;;;;;;4972745;28;20029;-38
2023/10/28 05:19:53;;;;;;;2.45;0.70;;;14.00;99.90;;;;;;4972786;28;20038;-38
2023/10/28 05:22:19;;;;;;;1.90;0.65;;;14.00;99.90;;;;;;4972728;28;20031;-38
2023/10/28 05:24:47;;;;;;;1.42;0.60;;;14.00;99.90;;;;;;4972876;28;20030;-37
2023/10/28 05:27:13;;;;;;;1.13;0.52;;;14.00;99.90;;;;;;4972808;28;20514;-37
2023/10/28 05:29:38;;;;;;;1.45;0.52;;;14.00;99.90;;;;;;4972793;28;20027;-37
2023/10/28 05:32:04;;;;;;;0.98;0.40;;;14.00;99.90;;;;;;4972780;28;20116;-37
2023/10/28 05:34:30;;;;;;;1.25;0.50;;;14.00;99.90;;;;;;4973178;28;20097;-38
2023/10/28 05:36:56;;;;;;;2.25;0.70;;;14.00;99.90;;;;;;4972494;28;20051;-37
2023/10/28 05:39:21;;;;;;;2.22;0.45;;;14.00;99.90;;;;;;4972781;28;20040;-37
2023/10/28 05:41:48;;;;;;;1.88;0.38;;;14.00;99.90;;;;;;4972626;28;20031;-37
2023/10/28 05:44:14;;;;;;;1.05;0.47;;;14.00;99.90;;;;;;4972591;28;20477;-37
2023/10/28 05:46:40;;;;;;;1.13;0.50;;;14.00;99.90;;;;;;4972189;28;20035;-38
2023/10/28 05:49:06;;;;;;;1.55;0.50;;;14.00;99.90;;;;;;4972452;28;20488;-38
2023/10/28 05:51:36;;;;;;;2.28;0.70;;;14.00;99.90;;;;;;4972458;28;20029;-38
2023/10/28 05:54:05;;;;;;;2.55;0.70;;;14.00;99.90;;;;;;4972428;28;20033;-38
2023/10/28 05:56:31;;;;;;;2.05;0.60;;;14.00;99.90;;;;;;4972199;28;20033;-37
2023/10/28 05:58:58;;;;;;;2.53;0.65;;;14.00;99.90;;;;;;4972376;28;20027;-38
2023/10/28 06:01:25;;;;;;;1.02;0.50;;;14.00;99.90;;;;;;4972561;28;20449;-38
2023/10/28 06:03:50;;;;;;;1.50;0.55;;;14.00;99.90;;;;;;4972408;28;20031;-37
2023/10/28 06:06:16;;;;;;;1.67;0.40;;;14.00;99.90;;;;;;4971984;28;20029;-37
2023/10/28 06:08:42;;;;;;;0.98;0.40;;;14.00;99.90;;;;;;4972259;28;20424;-37
2023/10/28 06:11:09;;;;;;;0.90;0.47;;;14.00;99.90;;;;;;4972523;28;20542;-37
2023/10/28 06:13:36;;;;;;;2.78;0.70;;;14.00;99.90;;;;;;4972275;28;20110;-38
2023/10/28 06:16:01;;;;;;;2.38;0.70;;;14.00;99.90;;;;;;4972056;28;20045;-38
2023/10/28 06:18:27;;;;;;;2.22;0.50;;;14.00;99.90;;;;;;4972118;28;20026;-37
2023/10/28 06:20:53;;;;;;;2.92;0.90;;;14.00;99.90;;;;;;4972621;28;20106;-38
2023/10/28 06:23:18;;;;;;;1.83;0.63;;;14.00;99.90;;;;;;4972084;28;20477;-38
2023/10/28 06:25:44;;;;;;;2.10;0.50;;;14.00;99.90;;;;;;4974246;28;20033;-37
2023/10/28 06:28:10;;;;;;;2.47;0.60;;;14.00;99.90;;;;;;4975829;28;20031;-37
2023/10/28 06:30:37;;;;;;;2.05;0.60;;;14.00;99.90;;;;;;4975757;28;20444;-37
2023/10/28 06:33:02;;;;;;;1.50;0.50;;;14.00;99.90;;;;;;4975870;28;20487;-37
2023/10/28 06:35:30;;;;;;;2.20;0.50;;;14.00;99.90;;;;;;4975630;28;20085;-38
2023/10/28 06:37:56;;;;;;;1.08;0.50;;;14.00;99.90;;;;;;4975516;28;20031;-37
2023/10/28 06:40:21;;;;;;;1.30;0.68;;;14.00;99.90;;;;;;4975696;28;20023;-37
2023/10/28 06:42:47;;;;;;;0.80;0.50;;;14.00;99.90;;;;;;4975554;28;20030;-37
2023/10/28 06:45:12;;;;;;;2.40;0.70;;;14.00;99.90;;;;;;4975512;28;20031;-38
2023/10/28 06:47:38;;;;;;;2.92;0.73;;;14.00;99.90;;;;;;4975498;28;20077;-38
2023/10/28 06:50:06;;;;;;;2.60;0.77;;;14.00;99.90;;;;;;4975470;28;20168;-37
2023/10/28 06:52:32;;;;;;;1.38;0.47;;;14.00;99.90;;;;;;4975327;28;20041;-37
2023/10/28 06:55:02;;;;;;;0.60;0.30;;;14.00;99.90;;;;;;4975317;28;20085;-37
2023/10/28 06:57:30;;;;;;;2.08;0.57;;;14.00;99.90;;;;;;4975416;28;20496;-37
2023/10/28 06:59:56;;;;;;;1.77;0.60;;;14.00;99.90;;;;;;4975286;28;20027;-38
2023/10/28 07:02:22;;;;;;;2.45;0.80;;;14.00;99.90;;;;;;4975097;28;20034;-37
2023/10/28 07:04:47;;;;;;;1.88;0.68;;;14.00;99.90;;;;;;4975178;28;20089;-38
2023/10/28 07:07:14;;;;;;;1.67;0.50;;;14.00;99.90;;;;;;4974884;28;20473;-38
2023/10/28 07:09:40;;;;;;;1.73;0.70;;;14.00;99.90;;;;;;4975188;28;20389;-37
2023/10/28 07:12:06;;;;;;;1.63;0.60;;;14.00;99.90;;;;;;4975319;28;20026;-37
2023/10/28 07:14:34;;;;;;;2.47;0.68;;;13.90;99.90;;;;;;4974917;28;20033;-38
2023/10/28 07:17:00;;;;;;;1.02;0.40;;;14.00;99.90;;;;;;4974767;28;20425;-37
2023/10/28 07:19:26;;;;;;;1.02;0.40;;;14.00;99.90;;;;;;4974771;28;20440;-38
2023/10/28 07:21:52;;;;;;;2.47;0.82;;;13.90;99.90;;;;;;4974826;28;20041;-38
2023/10/28 07:24:17;;;;;;;2.22;0.60;;;14.00;99.90;;;;;;4974774;28;20038;-38
2023/10/28 07:26:43;;;;;;;2.78;0.63;;;14.00;99.90;;;;;;4974578;28;20026;-38
2023/10/28 07:29:09;;;;;;;2.05;0.70;;;14.00;99.90;;;;;;4974681;28;20427;-37
2023/10/28 07:31:38;;;;;;;3.05;0.73;;;14.00;99.90;;;;;;4974691;28;20072;-38
2023/10/28 07:34:07;;;;;;;4.75;0.80;;;14.00;99.90;;;;;;4974712;28;20106;-38
2023/10/28 07:36:33;;;;;;;1.73;0.68;;;14.00;99.90;;;;;;4973846;28;20031;-38
2023/10/28 07:39:01;;;;;;;1.73;0.65;;;14.00;99.90;;;;;;4974551;28;20082;-37
2023/10/28 07:41:29;;;;;;;2.03;0.60;;;14.00;99.90;;;;;;4974546;28;20030;-37
2023/10/28 07:43:56;;;;;;;1.38;0.40;;;14.10;99.90;;;;;;4974327;28;20029;-37
2023/10/28 07:46:23;;;;;;;1.65;0.70;;;14.10;99.90;;;;;;4974611;28;20085;-38
2023/10/28 07:48:49;;;;;;;2.33;0.63;;;14.10;99.90;;;;;;4974283;28;20026;-38
2023/10/28 07:51:17;;;;;;;1.50;0.60;;;14.10;99.90;;;;;;4974281;28;20019;-37
2023/10/28 07:53:44;;;;;;;2.65;0.80;;;14.10;99.90;;;;;;4972962;28;20377;-38
2023/10/28 07:56:09;;;;;;;1.40;0.63;;;14.10;99.90;;;;;;4974103;28;20030;-37
2023/10/28 07:58:36;;;;;;;2.55;0.60;;;14.10;99.90;;;;;;4974391;28;20109;-37
2023/10/28 08:01:03;;;;;;;2.08;0.90;;;14.10;99.90;;;;;;4974293;28;20031;-38
2023/10/28 08:03:30;;;;;;;1.15;0.50;;;14.10;99.90;;;;;;4973946;28;20392;-38
2023/10/28 08:05:56;;;;;;;2.00;0.50;;;14.10;99.90;;;;;;4974053;28;20085;-38
2023/10/28 08:08:21;;;;;;;2.53;0.73;;;14.10;99.90;;;;;;4972751;28;20027;-38
2023/10/28 08:10:48;;;;;;;2.78;0.70;;;14.10;99.90;;;;;;4974029;28;20039;-38
2023/10/28 08:13:14;;;;;;;3.25;0.63;;;14.10;99.90;;;;;;4972610;28;20488;-38
2023/10/28 08:15:39;;;;;;;2.10;0.80;;;14.20;99.90;;;;;;4973658;28;20041;-38
2023/10/28 08:18:05;;;;;;;2.00;0.98;;;14.20;99.90;;;;;;4973678;28;20082;-37
2023/10/28 08:20:31;;;;;;;1.88;0.60;;;14.20;99.90;;;;;;4973777;28;20085;-38
2023/10/28 08:22:56;;;;;;;2.03;0.70;;;14.20;99.90;;;;;;4973634;28;20477;-37
2023/10/28 08:25:22;;;;;;;1.52;0.50;;;14.20;99.90;;;;;;4973731;28;20490;-37
2023/10/28 08:27:48;;;;;;;0.93;0.70;;;14.20;99.90;;;;;;4973577;28;20102;-37
2023/10/28 08:30:17;;;;;;;1.40;0.60;;;14.20;99.90;;;;;;4973602;28;20027;-37
2023/10/28 08:32:44;;;;;;;2.65;0.70;;;14.20;99.90;;;;;;4973563;28;20094;-38
2023/10/28 08:35:09;;;;;;;1.70;0.70;;;14.20;99.90;;;;;;4973416;28;20460;-38
2023/10/28 08:37:35;;;;;;;9.95;2.70;;;14.20;99.90;;;;;;4972990;28;20050;-38
2023/10/28 08:40:03;;;;;;;9.65;3.35;;;13.60;99.90;;;;;;4969409;28;20416;-37
2023/10/28 08:42:30;;;;;;;9.80;1.83;;;13.50;99.90;;;;;;4970613;28;20043;-37
2023/10/28 08:44:58;;;;;;;5.72;1.65;;;12.90;99.90;;;;;;4971409;28;20034;-37
2023/10/28 08:47:26;;;;;;;7.05;1.60;;;12.90;99.90;;;;;;4967831;28;20033;-37
2023/10/28 08:49:54;;;;;;;3.60;1.35;;;13.00;99.90;;;;;;4967441;28;20026;-37
2023/10/28 08:52:23;;;;;;;6.13;1.45;;;13.00;99.90;;;;;;4973165;28;20389;-37
2023/10/28 08:54:49;;;;;;;4.47;1.67;;;13.10;99.90;;;;;;4973067;28;20476;-37
2023/10/28 08:57:17;;;;;;;5.22;1.35;;;13.20;99.90;;;;;;4972869;28;20039;-37
2023/10/28 08:59:42;;;;;;;3.30;1.30;;;13.30;99.90;;;;;;4973050;28;20030;-37
2023/10/28 09:02:12;;;;;;;4.57;1.25;;;13.40;99.90;;;;;;4972927;28;20097;-37
2023/10/28 09:04:37;;;;;;;4.72;1.30;;;13.50;99.90;;;;;;4973206;28;20015;-37
2023/10/28 09:07:05;;;;;;;3.22;0.93;;;13.50;99.90;;;;;;4973105;28;20022;-37
2023/10/28 09:09:31;;;;;;;5.20;1.27;;;13.60;99.90;;;;;;4973114;28;20472;-37
2023/10/28 09:11:57;;;;;;;4.90;1.20;;;13.70;99.90;;;;;;4972691;28;20038;-37
2023/10/28 09:14:23;;;;;;;4.90;1.30;;;13.70;99.90;;;;;;4972891;28;20077;-37
2023/10/28 09:16:49;;;;;;;3.92;1.45;;;13.80;99.90;;;;;;4972642;28;20030;-37
2023/10/28 09:19:20;;;;;;;3.67;1.30;;;13.80;99.90;;;;;;4972846;28;20106;-37
2023/10/28 09:21:48;;;;;;;3.60;1.30;;;13.80;99.90;;;;;;4972725;28;20023;-37
2023/10/28 09:24:14;;;;;;;2.83;1.20;;;13.80;99.90;;;;;;4972778;28;20105;-37
2023/10/28 09:26:40;;;;;;;6.63;1.30;;;13.80;99.90;;;;;;4972351;28;20023;-37
2023/10/28 09:29:06;;;;;;;3.28;0.90;;;13.90;99.90;;;;;;4972705;28;20029;-37
2023/10/28 09:31:32;;;;;;;3.85;1.00;;;13.90;99.90;;;;;;4972726;28;20106;-37
2023/10/28 09:33:59;;;;;;;3.58;1.33;;;13.90;99.90;;;;;;4972876;28;20392;-37
2023/10/28 09:36:26;;;;;;;3.78;1.38;;;14.00;99.90;;;;;;4971292;28;20031;-37
2023/10/28 09:38:54;;;;;;;4.10;1.42;;;14.00;99.90;;;;;;4972653;28;20477;-37
2023/10/28 09:41:21;;;;;;;2.78;0.95;;;14.00;99.90;;;;;;4972666;28;20027;-37
2023/10/28 09:43:47;;;;;;;3.88;1.35;;;14.10;99.90;;;;;;4972882;28;20105;-37
2023/10/28 09:46:18;;;;;;;2.45;0.90;;;14.10;99.90;;;;;;4972249;28;20123;-37
2023/10/28 09:48:48;;;;;;;3.13;1.00;;;14.10;99.90;;;;;;4972671;28;20109;-37
2023/10/28 09:51:20;;;;;;;2.55;1.00;;;14.10;99.90;;;;;;4972566;28;20022;-37
2023/10/28 09:53:51;;;;;;;3.58;1.02;;;14.10;99.90;;;;;;4972482;28;20449;-37
2023/10/28 09:56:19;;;;;;;3.17;0.98;;;14.10;99.90;;;;;;4972335;28;20432;-37
2023/10/28 09:59:14;;;;;;;3.30;1.10;;;14.10;99.90;;;;;;4972546;28;20440;-37
2023/10/28 10:02:00;;;;;;;2.50;1.20;;;14.10;99.90;;;;;;4959558;28;20066;-37
2023/10/28 10:04:59;;;;;;;2.80;1.20;;;14.20;99.90;;;;;;4976427;28;20031;-37
2023/10/28 10:07:25;;;;;;;3.38;1.10;;;14.20;99.90;;;;;;4961339;28;20073;-37
2023/10/28 10:09:51;;;;;;;2.63;1.25;;;14.20;99.90;;;;;;4976349;28;20054;-37
2023/10/28 10:12:17;;;;;;;2.90;1.10;;;14.20;99.90;;;;;;4976235;28;20046;-37
2023/10/28 10:14:46;;;;;;;5.25;1.30;;;14.20;99.90;;;;;;4976039;28;20484;-37
2023/10/28 10:17:19;;;;;;;3.17;1.17;;;14.20;99.90;;;;;;4975875;28;20026;-37
2023/10/28 10:19:48;;;;;;;4.22;0.90;;;14.20;99.90;;;;;;4976150;28;20097;-37
2023/10/28 10:22:17;;;;;;;3.75;1.00;;;14.20;99.90;;;;;;4975889;28;20035;-37
2023/10/28 10:24:51;;;;;;;3.72;1.13;;;14.20;99.90;;;;;;4975896;28;20050;-37
2023/10/28 10:27:34;;;;;;;2.42;1.08;;;14.20;99.90;;;;;;4975715;28;20028;-37
2023/10/28 10:30:05;;;;;;;2.85;1.00;;;14.20;99.90;;;;;;4975783;28;20448;-37
2023/10/28 10:32:40;;;;;;;4.03;1.13;;;14.20;99.90;;;;;;4975900;28;20038;-37
2023/10/28 10:35:25;;;;;;;4.10;0.80;;;14.20;99.90;;;;;;4975786;28;20024;-37
2023/10/28 10:38:00;;;;;;;4.35;1.48;;;14.20;99.90;;;;;;4975814;28;20041;-37
2023/10/28 10:40:25;;;;;;;2.63;0.80;;;14.20;99.90;;;;;;4975689;28;20023;-37
2023/10/28 10:42:55;;;;;;;3.13;0.90;;;14.20;99.90;;;;;;4975660;28;20034;-37
2023/10/28 10:45:22;;;;;;;4.88;1.42;;;14.30;99.90;;;;;;4975357;28;20548;-37
2023/10/28 10:47:48;;;;;;;2.60;0.98;;;14.30;99.90;;;;;;4975415;28;20023;-37
2023/10/28 10:50:14;;;;;;;2.83;1.00;;;14.30;99.90;;;;;;4975484;28;20057;-37
2023/10/28 10:52:42;;;;;;;4.25;1.02;;;14.30;99.90;;;;;;4975449;28;20547;-36
2023/10/28 10:55:08;;;;;;;2.90;1.20;;;14.30;99.90;;;;;;4975286;28;20030;-37
2023/10/28 10:57:36;;;;;;;2.75;0.90;;;14.30;99.90;;;;;;4975236;28;20058;-37
2023/10/28 11:00:13;;;;;;;4.50;1.10;;;14.30;99.90;;;;;;4975356;28;20073;-37
2023/10/28 11:02:39;;;;;;;3.70;0.90;;;14.30;99.90;;;;;;4975127;28;20030;-37
2023/10/28 11:05:05;;;;;;;4.63;1.00;;;14.30;99.90;;;;;;4975083;28;20031;-37
2023/10/28 11:07:30;;;;;;;3.70;1.08;;;14.30;99.90;;;;;;4974966;28;20034;-37
2023/10/28 11:09:56;;;;;;;2.60;0.95;;;14.30;99.90;;;;;;4973848;28;20019;-37
2023/10/28 11:12:23;;;;;;;2.85;0.90;;;14.20;99.90;;;;;;4974192;28;20034;-37
2023/10/28 11:14:49;;;;;;;3.40;0.95;;;14.30;99.90;;;;;;4974895;28;20400;-37
2023/10/28 11:17:14;;;;;;;2.03;0.88;;;14.20;99.90;;;;;;4974885;28;20031;-37
2023/10/28 11:20:09;;;;;;;2.97;0.90;;;14.30;99.90;;;;;;4974929;28;20110;-37
2023/10/28 11:22:39;;;;;;;4.95;1.00;;;14.30;99.90;;;;;;4972496;28;20043;-37
2023/10/28 11:25:06;;;;;;;2.70;0.90;;;14.20;99.90;;;;;;4974777;28;20492;-37
2023/10/28 11:27:32;;;;;;;4.80;1.02;;;14.30;99.90;;;;;;4974608;28;20052;-37
2023/10/28 11:29:58;;;;;;;3.75;1.15;;;14.30;99.90;;;;;;4974837;28;20026;-37
2023/10/28 11:32:27;;;;;;;3.40;1.23;;;14.20;99.90;;;;;;4974702;28;20031;-37
2023/10/28 11:34:54;;;;;;;2.60;0.85;;;14.20;99.90;;;;;;4974588;28;20027;-37
2023/10/28 11:37:20;;;;;;;4.93;1.23;;;14.30;99.90;;;;;;4974698;28;20388;-37
2023/10/28 11:39:48;;;;;;;3.13;1.10;;;14.20;99.90;;;;;;4974712;28;20039;-37
2023/10/28 11:42:18;;;;;;;3.95;1.13;;;14.20;99.90;;;;;;4974261;28;20511;-37
2023/10/28 11:44:49;;;;;;;4.28;1.17;;;14.20;99.90;;;;;;4974612;28;20045;-37
2023/10/28 11:47:15;;;;;;;3.28;1.13;;;14.20;99.90;;;;;;4974338;28;20069;-37
2023/10/28 11:49:41;;;;;;;2.33;0.93;;;14.20;99.90;;;;;;4974573;28;20209;-37
2023/10/28 11:52:09;;;;;;;2.60;0.93;;;14.20;99.90;;;;;;4974481;28;20445;-37
2023/10/28 11:54:35;;;;;;;3.70;1.02;;;14.20;99.90;;;;;;4974395;28;20070;-37
2023/10/28 11:57:00;;;;;;;2.35;0.88;;;14.20;99.90;;;;;;4974108;28;20027;-37
2023/10/28 11:59:26;;;;;;;3.25;1.00;;;14.20;99.90;;;;;;4974208;28;20483;-37
2023/10/28 12:01:53;;;;;;;4.07;1.20;;;14.20;99.90;;;;;;4974538;28;20022;-37
2023/10/28 12:04:21;;;;;;;4.18;1.13;;;14.20;99.90;;;;;;4974126;28;20374;-37
2023/10/28 12:06:47;;;;;;;3.83;1.15;;;14.20;99.90;;;;;;4973901;28;20485;-37
2023/10/28 12:09:14;;;;;;;2.53;1.05;;;14.20;99.90;;;;;;4974548;28;20062;-37
2023/10/28 12:11:40;;;;;;;2.92;1.00;;;14.20;99.90;;;;;;4974159;28;20101;-37
2023/10/28 12:14:07;;;;;;;3.97;1.20;;;14.20;99.90;;;;;;4972557;28;20447;-37
2023/10/28 12:16:35;;;;;;;1.90;0.75;;;14.10;99.90;;;;;;4974189;28;20460;-37
2023/10/28 12:19:02;;;;;;;2.55;0.90;;;14.20;99.90;;;;;;4973876;28;20034;-37
2023/10/28 12:21:28;;;;;;;2.20;0.70;;;14.20;99.90;;;;;;4973812;28;20508;-37
2023/10/28 12:23:54;;;;;;;5.05;1.20;;;14.20;99.90;;;;;;4973719;28;20023;-37
2023/10/28 12:26:20;;;;;;;3.33;1.00;;;14.20;99.90;;;;;;4973819;28;20018;-37
2023/10/28 12:28:48;;;;;;;4.60;1.40;;;14.20;99.90;;;;;;4973972;28;20026;-37
2023/10/28 12:31:14;;;;;;;4.82;1.20;;;14.20;99.90;;;;;;4974034;28;20019;-37
2023/10/28 12:33:40;;;;;;;2.05;0.77;;;14.20;99.90;;;;;;4973767;28;20114;-37
2023/10/28 12:36:08;;;;;;;3.72;1.02;;;14.20;99.90;;;;;;4973467;28;20065;-37
2023/10/28 12:38:34;;;;;;;3.38;0.95;;;14.20;99.90;;;;;;4973447;28;20500;-37
2023/10/28 12:41:00;;;;;;;4.35;1.25;;;14.20;99.90;;;;;;4972213;28;20057;-37
2023/10/28 12:43:27;;;;;;;2.25;0.90;;;14.20;99.90;;;;;;4973837;28;20065;-37
2023/10/28 12:45:54;;;;;;;3.55;0.95;;;14.20;99.90;;;;;;4973116;28;20031;-37